Time;durP1;ratioP1;P1;durP2;ratioP2;P2;SDS_P1;SDS_P2;PMS_P1;PMS_P2;Temp;Humidity;BMP_temperature;BMP_pressure;BME280_temperature;BME280_humidity;BME280_pressure;Samples;Min_cycle;Max_cycle;Signal;HPM_P1;HPM_P2
2023/10/13 00:00:40;;;;;;;6.87;3.50;;;17.00;49.00;;;;;;2075921;28;20745;-84
2023/10/13 00:01:40;;;;;;;7.13;4.07;;;17.00;49.20;;;;;;2075052;28;20567;-84
2023/10/13 00:02:41;;;;;;;9.03;3.87;;;17.00;49.30;;;;;;2083465;28;20559;-84
2023/10/13 00:03:42;;;;;;;7.90;3.37;;;16.90;49.10;;;;;;2091430;28;20231;-84
2023/10/13 00:04:42;;;;;;;8.27;3.43;;;17.00;49.00;;;;;;2089802;28;21021;-85
2023/10/13 00:05:43;;;;;;;6.50;3.40;;;17.10;48.70;;;;;;2081808;28;20233;-85
2023/10/13 00:06:45;;;;;;;7.13;3.70;;;17.20;48.50;;;;;;2076673;28;20229;-84
2023/10/13 00:07:46;;;;;;;7.53;3.57;;;17.10;48.80;;;;;;2089123;28;20227;-84
2023/10/13 00:08:48;;;;;;;7.77;3.53;;;17.00;48.90;;;;;;2094385;28;20525;-84
2023/10/13 00:09:48;;;;;;;9.97;3.23;;;17.00;49.10;;;;;;2085346;28;21026;-85
2023/10/13 00:10:49;;;;;;;6.77;3.40;;;17.00;49.20;;;;;;2074570;28;20538;-85
2023/10/13 00:11:52;;;;;;;8.07;3.37;;;16.90;49.30;;;;;;2075016;28;20229;-84
2023/10/13 00:12:53;;;;;;;6.03;3.30;;;16.90;50.00;;;;;;2076771;28;20316;-84
2023/10/13 00:13:54;;;;;;;4.50;3.20;;;16.90;49.50;;;;;;2083438;28;20847;-84
2023/10/13 00:14:54;;;;;;;6.63;3.47;;;16.80;49.50;;;;;;2087366;28;20231;-85
2023/10/13 00:15:58;;;;;;;6.77;4.10;;;16.80;50.30;;;;;;2087977;28;20472;-84
2023/10/13 00:17:03;;;;;;;4.60;3.80;;;16.70;50.00;;;;;;2086189;28;20623;-84
2023/10/13 00:18:12;;;;;;;6.67;3.40;;;16.80;49.90;;;;;;2082908;28;20756;-85
2023/10/13 00:19:13;;;;;;;6.80;3.63;;;16.80;49.80;;;;;;2082416;28;20433;-84
2023/10/13 00:20:35;;;;;;;6.97;3.37;;;16.80;50.20;;;;;;2089905;28;20807;-85
2023/10/13 00:21:36;;;;;;;6.23;3.67;;;16.80;50.30;;;;;;2083109;28;20457;-85
2023/10/13 00:22:40;;;;;;;5.27;3.17;;;16.80;50.10;;;;;;2088176;28;20464;-84
2023/10/13 00:23:52;;;;;;;7.37;3.73;;;16.80;50.10;;;;;;2087667;28;20504;-84
2023/10/13 00:24:58;;;;;;;8.00;3.80;;;16.80;51.00;;;;;;2075749;28;20972;-83
2023/10/13 00:26:02;;;;;;;5.03;3.20;;;16.70;51.10;;;;;;2083114;28;20911;-84
2023/10/13 00:27:04;;;;;;;6.47;3.73;;;16.50;51.90;;;;;;2079545;28;20449;-84
2023/10/13 00:28:08;;;;;;;6.90;3.60;;;16.50;51.90;;;;;;2082451;28;20957;-84
2023/10/13 00:30:22;;;;;;;5.80;3.40;;;16.40;52.60;;;;;;2079773;28;20433;-85
2023/10/13 00:31:23;;;;;;;5.23;3.57;;;16.30;53.00;;;;;;2082902;28;20298;-84
2023/10/13 00:32:27;;;;;;;7.90;3.70;;;16.30;53.50;;;;;;2082642;28;20514;-84
2023/10/13 00:33:27;;;;;;;6.73;3.30;;;16.30;53.70;;;;;;2079941;28;20225;-84
2023/10/13 00:34:37;;;;;;;4.83;3.60;;;16.30;54.40;;;;;;2079786;28;20458;-84
2023/10/13 00:35:42;;;;;;;6.53;3.53;;;16.20;54.70;;;;;;2075185;28;20252;-84
2023/10/13 00:36:48;;;;;;;6.40;3.60;;;16.10;55.20;;;;;;2080507;28;20564;-84
2023/10/13 00:37:53;;;;;;;5.38;3.55;;;16.00;55.50;;;;;;2071328;28;20983;-84
2023/10/13 00:38:56;;;;;;;6.77;3.57;;;15.90;55.80;;;;;;2077976;28;20225;-84
2023/10/13 00:39:56;;;;;;;5.50;3.30;;;15.80;56.30;;;;;;2085875;28;20466;-84
2023/10/13 00:41:13;;;;;;;8.37;3.70;;;15.80;57.50;;;;;;2085799;28;20553;-84
2023/10/13 00:42:19;;;;;;;4.23;3.30;;;15.60;57.80;;;;;;2085381;28;20215;-84
2023/10/13 00:44:28;;;;;;;5.93;3.50;;;15.60;58.90;;;;;;2083643;28;20508;-84
2023/10/13 00:45:34;;;;;;;6.80;3.43;;;15.50;59.70;;;;;;2089187;28;20894;-84
2023/10/13 00:46:37;;;;;;;6.80;3.85;;;15.40;59.80;;;;;;2090852;28;20482;-85
2023/10/13 00:47:38;;;;;;;6.03;3.50;;;15.30;60.80;;;;;;2091971;28;20225;-85
2023/10/13 00:48:43;;;;;;;6.67;3.53;;;15.20;61.30;;;;;;2097118;28;20269;-84
2023/10/13 00:49:47;;;;;;;5.77;3.40;;;15.10;61.90;;;;;;2084120;28;20242;-84
2023/10/13 00:50:48;;;;;;;7.23;3.80;;;15.10;62.10;;;;;;2089267;28;20894;-84
2023/10/13 00:51:50;;;;;;;8.27;4.20;;;15.00;62.80;;;;;;2084215;28;20567;-84
2023/10/13 00:52:51;;;;;;;9.10;3.90;;;14.80;63.60;;;;;;2076635;28;20316;-84
2023/10/13 00:53:51;;;;;;;5.83;3.50;;;14.90;63.60;;;;;;2083867;28;20466;-83
2023/10/13 00:54:53;;;;;;;7.13;3.80;;;14.90;63.80;;;;;;2075429;28;20645;-84
2023/10/13 00:55:57;;;;;;;5.50;3.35;;;14.90;64.20;;;;;;2084022;28;20224;-83
2023/10/13 00:57:04;;;;;;;5.78;3.67;;;14.80;64.80;;;;;;2087916;28;20270;-83
2023/10/13 00:58:07;;;;;;;6.68;3.60;;;14.80;65.10;;;;;;2082652;28;20656;-84
2023/10/13 00:59:10;;;;;;;8.40;3.67;;;14.80;65.10;;;;;;2083355;28;20173;-83
2023/10/13 01:00:24;;;;;;;8.18;3.70;;;14.80;65.60;;;;;;2076137;28;20293;-85
2023/10/13 01:01:29;;;;;;;6.40;3.63;;;14.80;65.70;;;;;;2074907;28;20252;-83
2023/10/13 01:03:38;;;;;;;5.75;3.50;;;14.60;67.00;;;;;;2080148;28;20898;-84
2023/10/13 01:04:38;;;;;;;5.40;3.67;;;14.50;67.20;;;;;;2086740;28;20238;-84
2023/10/13 01:05:41;;;;;;;5.40;3.63;;;14.50;67.60;;;;;;2083880;28;20308;-83
2023/10/13 01:06:41;;;;;;;6.07;3.90;;;14.40;68.50;;;;;;2065801;28;20253;-83
2023/10/13 01:07:42;;;;;;;5.10;3.70;;;14.40;68.60;;;;;;2070750;28;20577;-84
2023/10/13 01:08:50;;;;;;;8.00;4.00;;;14.40;69.30;;;;;;2081428;28;20315;-84
2023/10/13 01:09:51;;;;;;;6.25;3.63;;;14.40;70.10;;;;;;2073907;28;20236;-83
2023/10/13 01:10:53;;;;;;;5.40;3.83;;;14.40;70.50;;;;;;2088594;28;20244;-84
2023/10/13 01:11:55;;;;;;;5.75;3.53;;;14.30;70.70;;;;;;2089665;28;20239;-84
2023/10/13 01:12:55;;;;;;;8.15;3.70;;;14.10;71.60;;;;;;2091104;28;20262;-84
2023/10/13 01:13:56;;;;;;;7.07;4.33;;;14.10;72.60;;;;;;2093169;28;20288;-85
2023/10/13 01:14:59;;;;;;;6.60;4.00;;;14.00;73.40;;;;;;2096585;28;20231;-85
2023/10/13 01:16:02;;;;;;;6.20;3.88;;;13.90;73.70;;;;;;2082072;28;20300;-84
2023/10/13 01:17:04;;;;;;;6.43;4.05;;;13.90;74.90;;;;;;2069789;28;20236;-84
2023/10/13 01:18:16;;;;;;;6.97;3.97;;;13.90;75.10;;;;;;2086226;28;20196;-84
2023/10/13 01:19:18;;;;;;;8.23;4.25;;;13.80;76.80;;;;;;2090043;28;20186;-85
2023/10/13 01:20:21;;;;;;;9.32;4.68;;;13.70;76.90;;;;;;2090068;28;20668;-85
2023/10/13 01:21:27;;;;;;;5.82;3.92;;;13.70;77.30;;;;;;2092674;28;20617;-83
2023/10/13 01:22:28;;;;;;;7.80;4.18;;;13.70;77.40;;;;;;2093186;28;20226;-84
2023/10/13 01:23:29;;;;;;;5.43;4.00;;;13.70;77.30;;;;;;2094435;28;20227;-85
2023/10/13 01:24:37;;;;;;;6.97;4.10;;;13.70;76.80;;;;;;2092600;28;20227;-84
2023/10/13 01:25:39;;;;;;;9.52;4.30;;;13.60;77.80;;;;;;2092453;28;20348;-84
2023/10/13 01:26:42;;;;;;;7.47;3.90;;;13.50;77.40;;;;;;2092277;28;20232;-85
2023/10/13 01:27:44;;;;;;;8.73;3.92;;;13.50;78.30;;;;;;2084202;28;20688;-84
2023/10/13 01:28:46;;;;;;;9.45;4.60;;;13.50;78.90;;;;;;2090851;28;20247;-85
2023/10/13 01:29:48;;;;;;;9.77;4.40;;;13.50;79.20;;;;;;2086102;28;20227;-84
2023/10/13 01:30:52;;;;;;;7.28;4.05;;;13.40;79.80;;;;;;2094305;28;20239;-84
2023/10/13 01:31:52;;;;;;;6.57;4.05;;;13.40;79.50;;;;;;2084851;28;20235;-84
2023/10/13 01:32:54;;;;;;;5.67;4.27;;;13.40;79.90;;;;;;2074120;28;20329;-85
2023/10/13 01:33:58;;;;;;;9.05;4.20;;;13.40;80.50;;;;;;2077131;28;20237;-84
2023/10/13 01:35:05;;;;;;;7.13;4.30;;;13.30;80.60;;;;;;2080065;28;20319;-84
2023/10/13 01:36:10;;;;;;;5.65;4.13;;;13.30;81.30;;;;;;2082065;28;20808;-83
2023/10/13 01:37:11;;;;;;;9.52;4.10;;;13.30;82.10;;;;;;2086665;28;20191;-84
2023/10/13 01:38:11;;;;;;;5.55;3.70;;;13.20;82.40;;;;;;2085968;28;20181;-84
2023/10/13 01:39:16;;;;;;;7.90;4.00;;;13.30;82.10;;;;;;2095162;28;20267;-84
2023/10/13 01:40:20;;;;;;;7.25;4.22;;;13.20;82.00;;;;;;2093425;28;20191;-84
2023/10/13 01:41:22;;;;;;;8.18;4.13;;;13.20;82.00;;;;;;2087505;28;20192;-85
2023/10/13 01:42:24;;;;;;;9.90;4.55;;;13.30;81.80;;;;;;2092035;28;20296;-85
2023/10/13 01:43:25;;;;;;;6.20;4.10;;;13.30;81.70;;;;;;2095873;28;20223;-85
2023/10/13 01:44:27;;;;;;;6.40;4.00;;;13.30;81.50;;;;;;2088478;28;20270;-85
2023/10/13 01:45:31;;;;;;;6.40;4.20;;;13.20;82.90;;;;;;2077099;28;20280;-85
2023/10/13 01:46:32;;;;;;;7.35;4.10;;;13.20;83.20;;;;;;2084490;28;20220;-85
2023/10/13 01:47:33;;;;;;;6.43;3.93;;;13.20;83.30;;;;;;2093747;28;20302;-85
2023/10/13 01:48:38;;;;;;;6.63;4.13;;;13.10;83.00;;;;;;2093566;28;20469;-85
2023/10/13 01:49:46;;;;;;;6.03;4.15;;;13.10;82.80;;;;;;2087174;28;20231;-85
2023/10/13 01:50:48;;;;;;;5.20;3.60;;;13.10;83.60;;;;;;2093040;28;20264;-84
2023/10/13 01:51:48;;;;;;;6.43;4.00;;;13.10;83.50;;;;;;2095088;28;20223;-84
2023/10/13 01:52:51;;;;;;;6.37;4.10;;;13.00;83.60;;;;;;2088873;28;20700;-85
2023/10/13 01:53:56;;;;;;;7.25;4.10;;;13.00;84.20;;;;;;2092703;28;20221;-84
2023/10/13 01:55:00;;;;;;;7.10;4.03;;;13.00;84.30;;;;;;2085275;28;20224;-84
2023/10/13 01:56:05;;;;;;;6.28;4.10;;;12.90;83.90;;;;;;2084438;28;20318;-84
2023/10/13 01:57:06;;;;;;;6.40;3.78;;;12.90;84.00;;;;;;2087525;28;20219;-84
2023/10/13 01:58:14;;;;;;;5.10;3.55;;;13.00;84.00;;;;;;2092050;28;20192;-83
2023/10/13 01:59:15;;;;;;;5.47;3.95;;;13.00;83.70;;;;;;2082640;28;20180;-83
2023/10/13 02:00:19;;;;;;;4.63;3.50;;;12.90;83.20;;;;;;2082390;28;20185;-83
2023/10/13 02:01:29;;;;;;;5.43;4.20;;;13.00;82.80;;;;;;2082967;28;20211;-84
2023/10/13 02:02:29;;;;;;;6.70;4.18;;;13.10;82.90;;;;;;2075763;28;20248;-84
2023/10/13 02:03:30;;;;;;;9.47;5.57;;;13.10;82.50;;;;;;2076429;28;20272;-84
2023/10/13 02:04:42;;;;;;;9.23;4.60;;;13.10;82.10;;;;;;2085626;28;20303;-84
2023/10/13 02:05:48;;;;;;;7.72;4.60;;;13.00;82.80;;;;;;2094283;28;20283;-84
2023/10/13 02:06:48;;;;;;;7.63;4.85;;;13.10;82.60;;;;;;2082196;28;20225;-84
2023/10/13 02:07:49;;;;;;;10.83;5.20;;;13.00;82.30;;;;;;2085169;28;20221;-84
2023/10/13 02:08:56;;;;;;;7.53;4.80;;;13.00;82.80;;;;;;2086855;28;20278;-84
2023/10/13 02:09:57;;;;;;;8.50;5.45;;;13.00;83.00;;;;;;2085007;28;20632;-84
2023/10/13 02:11:01;;;;;;;7.47;5.07;;;13.00;82.80;;;;;;2094382;28;20227;-84
2023/10/13 02:12:01;;;;;;;7.28;4.80;;;13.00;83.10;;;;;;2086997;28;20274;-85
2023/10/13 02:13:03;;;;;;;7.00;5.03;;;13.00;83.30;;;;;;2090759;28;20712;-83
2023/10/13 02:14:04;;;;;;;7.68;4.00;;;12.90;83.40;;;;;;2087297;28;20199;-83
2023/10/13 02:15:05;;;;;;;8.10;4.50;;;12.90;84.40;;;;;;2087216;28;20219;-84
2023/10/13 02:16:06;;;;;;;8.50;4.50;;;12.80;85.00;;;;;;2085499;28;20192;-84
2023/10/13 02:17:13;;;;;;;7.35;4.38;;;12.80;85.00;;;;;;2075015;28;20232;-84
2023/10/13 02:18:41;;;;;;;6.00;4.20;;;12.80;85.30;;;;;;2079096;28;20236;-84
2023/10/13 02:19:45;;;;;;;6.22;3.88;;;12.90;85.30;;;;;;2081484;28;20228;-84
2023/10/13 02:20:46;;;;;;;6.45;4.13;;;12.70;85.40;;;;;;2085654;28;20326;-85
2023/10/13 02:21:58;;;;;;;9.15;4.85;;;12.80;85.40;;;;;;2087478;28;20852;-84
2023/10/13 02:22:59;;;;;;;7.72;4.07;;;12.80;85.30;;;;;;2089093;28;20247;-84
2023/10/13 02:24:03;;;;;;;6.68;4.22;;;12.80;85.10;;;;;;2086149;28;20336;-84
2023/10/13 02:25:06;;;;;;;10.32;4.88;;;12.80;85.20;;;;;;2076331;28;20221;-85
2023/10/13 02:26:14;;;;;;;7.22;4.38;;;12.70;85.60;;;;;;2080819;28;20258;-84
2023/10/13 02:27:15;;;;;;;7.25;4.57;;;12.70;85.60;;;;;;2079310;28;20688;-85
2023/10/13 02:28:21;;;;;;;8.37;5.03;;;12.80;86.00;;;;;;2074708;28;20188;-85
2023/10/13 02:29:22;;;;;;;6.75;4.68;;;12.80;86.40;;;;;;2083554;28;20203;-84
2023/10/13 02:30:23;;;;;;;7.27;4.93;;;12.80;85.90;;;;;;2087164;28;20232;-84
2023/10/13 02:31:27;;;;;;;8.48;4.85;;;12.70;86.20;;;;;;2084333;28;20233;-84
2023/10/13 02:32:30;;;;;;;8.10;4.75;;;12.70;86.30;;;;;;2082957;28;20225;-85
2023/10/13 02:33:31;;;;;;;7.00;4.90;;;12.70;87.30;;;;;;2093888;28;20223;-83
2023/10/13 02:34:32;;;;;;;6.85;4.57;;;12.60;87.30;;;;;;2093053;28;20227;-84
2023/10/13 02:35:34;;;;;;;9.23;5.30;;;12.60;87.00;;;;;;2084926;28;20584;-84
2023/10/13 02:36:46;;;;;;;7.20;4.85;;;12.60;87.30;;;;;;2087087;28;20270;-85
2023/10/13 02:37:54;;;;;;;8.65;5.28;;;12.60;86.90;;;;;;2083499;28;20229;-84
2023/10/13 02:38:57;;;;;;;7.28;4.43;;;12.60;87.30;;;;;;2087365;28;20311;-85
2023/10/13 02:40:00;;;;;;;8.90;4.47;;;12.50;88.80;;;;;;2086984;28;20228;-84
2023/10/13 02:41:07;;;;;;;8.65;4.80;;;12.50;89.20;;;;;;2086704;28;20247;-84
2023/10/13 02:42:24;;;;;;;9.18;4.90;;;12.40;89.30;;;;;;2083222;28;20213;-83
2023/10/13 02:43:25;;;;;;;8.18;5.05;;;12.40;89.40;;;;;;2079232;28;20598;-84
2023/10/13 02:44:33;;;;;;;8.27;4.85;;;12.30;89.10;;;;;;2078424;28;20225;-84
2023/10/13 02:45:37;;;;;;;7.47;4.68;;;12.30;89.80;;;;;;2090353;28;20231;-84
2023/10/13 02:46:39;;;;;;;8.45;5.30;;;12.30;89.40;;;;;;2092572;28;20268;-84
2023/10/13 02:47:43;;;;;;;8.02;4.80;;;12.30;90.00;;;;;;2089482;28;20234;-83
2023/10/13 02:48:46;;;;;;;8.88;5.45;;;12.30;90.00;;;;;;2085821;28;20228;-84
2023/10/13 02:49:47;;;;;;;8.23;4.63;;;12.30;90.30;;;;;;2082317;28;20228;-84
2023/10/13 02:51:01;;;;;;;11.50;5.18;;;12.30;90.20;;;;;;2088752;28;20711;-84
2023/10/13 02:52:08;;;;;;;5.78;4.13;;;12.30;90.10;;;;;;2089532;28;20227;-84
2023/10/13 02:53:12;;;;;;;8.73;4.85;;;12.30;90.00;;;;;;2093858;28;20227;-85
2023/10/13 02:54:18;;;;;;;8.55;4.65;;;12.40;90.20;;;;;;2079652;28;20271;-85
2023/10/13 02:55:25;;;;;;;6.75;4.75;;;12.50;89.60;;;;;;2072184;28;20281;-85
2023/10/13 02:56:25;;;;;;;8.57;4.32;;;12.40;89.40;;;;;;2083917;28;20227;-84
2023/10/13 02:57:26;;;;;;;7.77;4.93;;;12.40;89.30;;;;;;2084318;28;20345;-84
2023/10/13 02:58:37;;;;;;;6.93;4.43;;;12.40;89.50;;;;;;2080254;28;20221;-84
2023/10/13 02:59:46;;;;;;;8.43;4.35;;;12.50;89.00;;;;;;2083520;28;20888;-83
2023/10/13 03:00:46;;;;;;;6.70;4.43;;;12.60;88.70;;;;;;2077808;28;20232;-85
2023/10/13 03:01:47;;;;;;;7.43;4.50;;;12.50;89.00;;;;;;2075842;28;20705;-84
2023/10/13 03:02:55;;;;;;;6.37;4.40;;;12.60;89.00;;;;;;2082225;28;20279;-84
2023/10/13 03:03:58;;;;;;;8.57;4.40;;;12.60;88.70;;;;;;2090734;28;20700;-85
2023/10/13 03:05:09;;;;;;;6.30;4.25;;;12.50;88.60;;;;;;2091000;28;20230;-85
2023/10/13 03:06:11;;;;;;;8.45;4.70;;;12.50;88.70;;;;;;2081983;28;20283;-85
2023/10/13 03:07:15;;;;;;;8.32;4.43;;;12.60;88.20;;;;;;2096570;28;20172;-85
2023/10/13 03:08:25;;;;;;;9.45;4.78;;;12.50;88.00;;;;;;2097653;28;20178;-84
2023/10/13 03:09:26;;;;;;;8.30;4.70;;;12.60;88.30;;;;;;2094837;28;20231;-85
2023/10/13 03:10:28;;;;;;;6.67;4.83;;;12.60;87.80;;;;;;2077702;28;20331;-85
2023/10/13 03:11:33;;;;;;;7.82;4.60;;;12.60;88.00;;;;;;2087906;28;20231;-84
2023/10/13 03:12:33;;;;;;;7.47;4.75;;;12.60;88.50;;;;;;2086324;28;20270;-84
2023/10/13 03:13:34;;;;;;;6.80;4.77;;;12.60;88.50;;;;;;2081165;28;20811;-84
2023/10/13 03:14:35;;;;;;;5.90;4.60;;;12.50;88.40;;;;;;2089351;28;20306;-86
2023/10/13 03:15:35;;;;;;;6.28;4.30;;;12.50;88.70;;;;;;2094904;28;20223;-84
2023/10/13 03:16:36;;;;;;;7.43;4.57;;;12.40;89.50;;;;;;2095694;28;20318;-84
2023/10/13 03:17:40;;;;;;;7.43;4.63;;;12.40;89.70;;;;;;2087220;28;20303;-84
2023/10/13 03:18:56;;;;;;;6.05;4.13;;;12.40;89.60;;;;;;2092813;28;20231;-84
2023/10/13 03:19:58;;;;;;;8.05;4.80;;;12.40;89.40;;;;;;2077862;28;20220;-84
2023/10/13 03:21:02;;;;;;;10.00;4.63;;;12.40;90.10;;;;;;2084629;28;20266;-84
2023/10/13 03:22:11;;;;;;;7.70;4.63;;;12.30;90.90;;;;;;2083646;28;20340;-84
2023/10/13 03:23:11;;;;;;;6.50;4.40;;;12.30;90.70;;;;;;2082510;28;20234;-83
2023/10/13 03:24:13;;;;;;;8.07;4.70;;;12.20;91.00;;;;;;2086877;28;20587;-84
2023/10/13 03:25:23;;;;;;;7.00;5.15;;;12.10;91.20;;;;;;2087161;28;20562;-83
2023/10/13 03:26:24;;;;;;;9.52;5.07;;;12.10;91.20;;;;;;2087993;28;20259;-83
2023/10/13 03:27:38;;;;;;;7.93;4.57;;;12.20;90.80;;;;;;2073772;28;20241;-83
2023/10/13 03:28:39;;;;;;;6.82;4.15;;;12.20;90.60;;;;;;2075437;28;20635;-84
2023/10/13 03:29:43;;;;;;;9.37;5.33;;;12.30;90.70;;;;;;2074765;28;20231;-84
2023/10/13 03:30:44;;;;;;;5.50;4.63;;;12.30;90.70;;;;;;2074131;28;20236;-83
2023/10/13 03:31:45;;;;;;;7.33;5.03;;;12.30;90.60;;;;;;2073223;28;20243;-84
2023/10/13 03:32:54;;;;;;;7.75;4.40;;;12.30;90.70;;;;;;2086228;28;20233;-84
2023/10/13 03:33:59;;;;;;;8.55;4.68;;;12.20;90.70;;;;;;2078575;28;20239;-84
2023/10/13 03:36:05;;;;;;;7.33;4.20;;;12.10;90.70;;;;;;2085553;28;20394;-84
2023/10/13 03:37:18;;;;;;;8.32;4.93;;;12.20;90.70;;;;;;2087512;28;20262;-84
2023/10/13 03:38:18;;;;;;;6.93;4.38;;;12.20;90.70;;;;;;2085926;28;20184;-85
2023/10/13 03:39:22;;;;;;;10.20;5.07;;;12.20;90.50;;;;;;2082593;28;20177;-85
2023/10/13 03:41:30;;;;;;;7.03;4.83;;;12.20;90.40;;;;;;2084633;28;20228;-82
2023/10/13 03:42:32;;;;;;;8.43;4.97;;;12.20;90.50;;;;;;2086508;28;20232;-84
2023/10/13 03:43:34;;;;;;;7.70;4.60;;;12.20;90.40;;;;;;2086340;28;20235;-84
2023/10/13 03:44:38;;;;;;;7.97;5.05;;;12.10;90.50;;;;;;2083141;28;20605;-83
2023/10/13 03:45:44;;;;;;;9.20;4.95;;;12.10;90.60;;;;;;2080092;28;20228;-84
2023/10/13 03:46:47;;;;;;;7.90;4.80;;;12.10;91.00;;;;;;2084908;28;20243;-84
2023/10/13 03:47:51;;;;;;;6.75;4.03;;;12.00;91.10;;;;;;2093499;28;20303;-84
2023/10/13 03:48:54;;;;;;;6.75;4.40;;;12.00;91.10;;;;;;2089168;28;20735;-85
2023/10/13 03:50:15;;;;;;;6.70;4.68;;;12.00;91.20;;;;;;2094548;28;20224;-86
2023/10/13 03:51:15;;;;;;;8.00;4.43;;;12.00;91.00;;;;;;2093105;28;20227;-85
2023/10/13 03:52:22;;;;;;;7.67;4.30;;;12.00;91.00;;;;;;2082647;28;20280;-83
2023/10/13 03:53:25;;;;;;;8.90;5.10;;;12.00;91.00;;;;;;2074861;28;20249;-84
2023/10/13 03:54:29;;;;;;;7.13;4.63;;;12.00;91.20;;;;;;2076697;28;20284;-84
2023/10/13 03:55:30;;;;;;;7.70;4.35;;;12.00;91.20;;;;;;2073557;28;20287;-84
2023/10/13 03:56:40;;;;;;;6.57;4.93;;;12.00;91.20;;;;;;2077448;28;20386;-84
2023/10/13 03:57:42;;;;;;;6.82;5.07;;;12.00;91.10;;;;;;2084047;28;20724;-84
2023/10/13 03:58:45;;;;;;;5.43;4.60;;;12.00;91.10;;;;;;2078948;28;20339;-84
2023/10/13 03:59:48;;;;;;;7.90;4.80;;;12.00;91.10;;;;;;2074563;28;20235;-84
2023/10/13 04:00:49;;;;;;;8.63;5.20;;;11.90;91.10;;;;;;2072004;28;20240;-85
2023/10/13 04:01:58;;;;;;;11.33;5.40;;;11.90;91.30;;;;;;2073838;28;20305;-84
2023/10/13 04:04:11;;;;;;;9.32;5.20;;;11.80;91.90;;;;;;2088236;28;20354;-83
2023/10/13 04:05:29;;;;;;;11.05;5.30;;;11.70;92.40;;;;;;2087339;28;20178;-85
2023/10/13 04:14:52;;;;;;;8.57;5.72;;;11.50;92.90;;;;;;2092093;28;20593;-83
2023/10/13 04:16:14;;;;;;;9.32;5.63;;;11.50;92.70;;;;;;2091370;28;20269;-84
2023/10/13 04:17:13;;;;;;;8.57;6.03;;;11.50;92.60;;;;;;2081065;28;20220;-84
2023/10/13 04:18:30;;;;;;;11.23;5.72;;;11.60;92.60;;;;;;2088235;28;20222;-84
2023/10/13 04:19:39;;;;;;;11.18;6.25;;;11.50;92.80;;;;;;2087285;28;20219;-84
2023/10/13 04:20:46;;;;;;;8.18;4.97;;;11.50;92.90;;;;;;2089230;28;20250;-85
2023/10/13 04:21:57;;;;;;;8.45;5.28;;;11.50;92.80;;;;;;2090015;28;20230;-85
2023/10/13 04:29:45;;;;;;;8.35;5.50;;;11.50;93.10;;;;;;2088695;28;20188;-84
2023/10/13 04:30:57;;;;;;;8.95;5.95;;;11.40;93.10;;;;;;2090523;28;20314;-85
2023/10/13 04:32:00;;;;;;;9.25;5.28;;;11.50;93.30;;;;;;2092775;28;20278;-84
2023/10/13 04:33:17;;;;;;;10.02;5.43;;;11.50;93.30;;;;;;2097147;28;20247;-85
2023/10/13 04:34:19;;;;;;;7.13;5.32;;;11.50;93.30;;;;;;2089995;28;20239;-85
2023/10/13 04:35:24;;;;;;;11.80;6.90;;;11.50;93.20;;;;;;2083824;28;20200;-84
2023/10/13 04:37:33;;;;;;;8.10;5.45;;;11.50;93.10;;;;;;2078549;28;20311;-82
2023/10/13 04:38:50;;;;;;;6.97;5.20;;;11.50;93.20;;;;;;2091244;28;20241;-83
2023/10/13 04:39:57;;;;;;;9.13;6.10;;;11.50;93.10;;;;;;2083687;28;20262;-84
2023/10/13 04:41:02;;;;;;;9.20;6.47;;;11.60;93.00;;;;;;2085591;28;20243;-83
2023/10/13 04:42:13;;;;;;;9.65;6.00;;;11.50;92.80;;;;;;2081719;28;20223;-83
2023/10/13 04:43:33;;;;;;;9.48;6.43;;;11.60;92.80;;;;;;2088299;28;20192;-83
2023/10/13 04:44:48;;;;;;;10.30;6.15;;;11.50;92.70;;;;;;2087848;28;20228;-83
2023/10/13 04:45:55;;;;;;;7.82;5.68;;;11.50;92.80;;;;;;2088230;28;20758;-84
2023/10/13 04:50:35;;;;;;;9.35;5.75;;;11.40;93.40;;;;;;2096649;28;20238;-84
2023/10/13 04:51:58;;;;;;;6.90;5.60;;;11.40;93.50;;;;;;2092921;28;20235;-84
2023/10/13 04:53:02;;;;;;;7.03;5.15;;;11.30;93.60;;;;;;2091394;28;20235;-84
2023/10/13 04:54:25;;;;;;;8.63;5.70;;;11.30;93.60;;;;;;2081919;28;20240;-84
2023/10/13 04:57:22;;;;;;;9.57;5.07;;;11.20;93.90;;;;;;2090901;28;20293;-84
2023/10/13 04:58:27;;;;;;;5.93;5.10;;;11.20;93.90;;;;;;2085479;28;20213;-84
2023/10/13 04:59:43;;;;;;;13.63;5.90;;;11.20;93.80;;;;;;2083213;28;20231;-84
2023/10/13 05:01:23;;;;;;;6.88;5.32;;;11.10;94.00;;;;;;2083156;28;20289;-84
2023/10/13 05:44:33;;;;;;;10.05;5.40;;;11.10;94.30;;;;;;2096840;28;20220;-84
2023/10/13 05:46:35;;;;;;;12.65;6.07;;;10.70;95.00;;;;;;2094264;28;20224;-83
2023/10/13 05:50:57;;;;;;;9.88;5.60;;;10.70;95.10;;;;;;2083067;28;20226;-83
2023/10/13 06:28:42;;;;;;;8.63;5.50;;;10.70;95.30;;;;;;2092580;28;20226;-85
2023/10/13 06:29:45;;;;;;;7.57;5.22;;;10.60;95.30;;;;;;2092468;28;20296;-84
2023/10/13 06:31:07;;;;;;;10.52;5.30;;;10.70;95.50;;;;;;2083768;28;20325;-84
2023/10/13 06:32:11;;;;;;;8.68;5.03;;;10.70;95.60;;;;;;2085868;28;20302;-84
2023/10/13 06:33:12;;;;;;;10.10;4.97;;;10.80;95.40;;;;;;2094338;28;20613;-84
2023/10/13 06:34:15;;;;;;;14.13;5.17;;;10.80;95.20;;;;;;2078292;28;20185;-85
2023/10/13 06:35:22;;;;;;;9.13;4.93;;;10.90;95.10;;;;;;2081862;28;20214;-85
2023/10/13 06:36:23;;;;;;;8.75;4.68;;;10.90;95.00;;;;;;2084794;28;20322;-84
2023/10/13 06:37:29;;;;;;;8.13;5.37;;;10.90;95.00;;;;;;2074351;28;20228;-84
2023/10/13 06:38:36;;;;;;;8.10;5.18;;;11.00;95.00;;;;;;2074940;28;20233;-83
2023/10/13 06:39:37;;;;;;;9.80;5.20;;;10.90;95.00;;;;;;2086627;28;20224;-84
2023/10/13 06:40:39;;;;;;;8.47;5.07;;;11.00;95.10;;;;;;2086481;28;20266;-84
2023/10/13 06:41:40;;;;;;;8.80;5.20;;;11.00;95.00;;;;;;2079044;28;20266;-85
2023/10/13 06:42:43;;;;;;;10.07;5.10;;;11.00;94.80;;;;;;2085829;28;20280;-84
2023/10/13 06:43:45;;;;;;;6.88;4.90;;;11.10;94.70;;;;;;2083045;28;20224;-84
2023/10/13 06:44:46;;;;;;;8.27;5.18;;;11.20;94.40;;;;;;2092611;28;20228;-84
2023/10/13 06:45:56;;;;;;;7.57;5.15;;;11.30;94.20;;;;;;2089228;28;20232;-85
2023/10/13 06:46:58;;;;;;;9.40;4.90;;;11.20;94.20;;;;;;2093103;28;20220;-84
2023/10/13 06:47:58;;;;;;;8.52;5.60;;;11.20;94.20;;;;;;2086482;28;20662;-84
2023/10/13 06:48:59;;;;;;;12.03;5.30;;;11.20;94.30;;;;;;2088108;28;20223;-85
2023/10/13 06:50:01;;;;;;;5.78;4.55;;;11.20;94.50;;;;;;2081560;28;20271;-85
2023/10/13 06:51:17;;;;;;;6.85;5.13;;;11.30;94.20;;;;;;2074168;28;20697;-84
2023/10/13 06:52:18;;;;;;;5.22;4.57;;;11.30;94.10;;;;;;2082956;28;20685;-84
2023/10/13 06:53:22;;;;;;;7.57;4.90;;;11.30;94.20;;;;;;2088015;28;20222;-85
2023/10/13 06:54:24;;;;;;;6.53;4.72;;;11.40;94.10;;;;;;2082476;28;21255;-85
2023/10/13 06:55:27;;;;;;;6.80;5.18;;;11.40;94.00;;;;;;2079412;28;20240;-85
2023/10/13 06:56:28;;;;;;;8.60;5.38;;;11.40;94.00;;;;;;2084873;28;20232;-85
2023/10/13 06:57:35;;;;;;;7.50;5.40;;;11.40;93.90;;;;;;2089040;28;20662;-84
2023/10/13 06:58:35;;;;;;;7.60;5.28;;;11.40;93.70;;;;;;2084749;28;20247;-85
2023/10/13 06:59:39;;;;;;;9.33;5.77;;;11.50;93.60;;;;;;2088267;28;20658;-85
2023/10/13 07:00:52;;;;;;;7.32;5.45;;;11.50;93.50;;;;;;2099882;28;20293;-85
2023/10/13 07:01:53;;;;;;;11.05;6.03;;;11.60;93.20;;;;;;2098792;28;20235;-86
2023/10/13 07:03:05;;;;;;;11.90;6.87;;;11.60;93.20;;;;;;2095858;28;20238;-89
2023/10/13 07:04:13;;;;;;;10.65;6.43;;;11.70;92.90;;;;;;2091276;28;20628;-85
2023/10/13 07:05:14;;;;;;;7.28;5.63;;;11.70;92.90;;;;;;2087237;28;20274;-85
2023/10/13 07:06:19;;;;;;;10.32;5.70;;;11.80;92.90;;;;;;2075692;28;20178;-85
2023/10/13 07:07:22;;;;;;;6.45;4.70;;;11.80;93.10;;;;;;2079090;28;20257;-85
2023/10/13 07:08:23;;;;;;;7.97;5.25;;;11.70;93.10;;;;;;2077510;28;20765;-84
2023/10/13 07:10:48;;;;;;;9.05;4.50;;;11.80;93.50;;;;;;2084520;28;20248;-85
2023/10/13 07:11:52;;;;;;;8.55;4.80;;;11.80;93.50;;;;;;2090932;28;20234;-85
2023/10/13 07:12:55;;;;;;;7.80;5.20;;;11.80;93.30;;;;;;2082468;28;20307;-85
2023/10/13 07:13:58;;;;;;;8.07;5.20;;;11.60;93.40;;;;;;2077548;28;20253;-85
2023/10/13 07:15:31;;;;;;;7.88;5.32;;;11.60;93.80;;;;;;2080262;28;20724;-85
2023/10/13 07:16:35;;;;;;;6.63;5.28;;;11.70;93.70;;;;;;2077981;28;20258;-85
2023/10/13 07:17:39;;;;;;;8.27;5.15;;;11.80;93.50;;;;;;2086062;28;20285;-83
2023/10/13 07:18:49;;;;;;;7.68;5.28;;;11.80;93.40;;;;;;2083742;28;20227;-84
2023/10/13 07:19:53;;;;;;;6.80;4.70;;;11.70;93.80;;;;;;2092169;28;20240;-85
2023/10/13 07:20:57;;;;;;;7.32;4.57;;;11.70;93.90;;;;;;2092064;28;20231;-83
2023/10/13 07:22:02;;;;;;;6.05;4.95;;;11.60;94.30;;;;;;2086482;28;20227;-83
2023/10/13 07:23:03;;;;;;;7.07;4.30;;;11.70;94.50;;;;;;2080955;28;20235;-84
2023/10/13 07:24:13;;;;;;;8.20;4.97;;;11.80;94.40;;;;;;2085391;28;20205;-84
2023/10/13 07:25:23;;;;;;;7.95;5.13;;;11.80;94.40;;;;;;2078203;28;20189;-84
2023/10/13 07:26:24;;;;;;;8.48;5.00;;;11.90;94.20;;;;;;2084404;28;20786;-84
2023/10/13 07:27:25;;;;;;;9.03;5.40;;;11.90;94.00;;;;;;2092893;28;20283;-84
2023/10/13 07:28:25;;;;;;;11.23;5.90;;;11.90;93.90;;;;;;2093040;28;20721;-83
2023/10/13 07:29:26;;;;;;;20.23;6.47;;;11.90;93.60;;;;;;2087196;28;20767;-84